sensor_id;sensor_type;location;lat;lon;timestamp;P1;durP1;ratioP1;P2;durP2;ratioP2
10174;SDS011;18221;38.704;0.152;2023-06-22T00:01:01;20.00;;;12.43;;
10174;SDS011;18221;38.704;0.152;2023-06-22T00:03:30;16.17;;;12.07;;
10174;SDS011;18221;38.704;0.152;2023-06-22T00:05:58;17.10;;;12.57;;
10174;SDS011;18221;38.704;0.152;2023-06-22T00:08:25;17.73;;;12.07;;
10174;SDS011;18221;38.704;0.152;2023-06-22T00:10:55;18.33;;;11.80;;
10174;SDS011;18221;38.704;0.152;2023-06-22T00:13:23;18.50;;;12.10;;
10174;SDS011;18221;38.704;0.152;2023-06-22T00:15:51;20.80;;;11.97;;
10174;SDS011;18221;38.704;0.152;2023-06-22T00:18:19;20.30;;;12.67;;
10174;SDS011;18221;38.704;0.152;2023-06-22T00:20:47;17.37;;;12.10;;
10174;SDS011;18221;38.704;0.152;2023-06-22T00:23:15;19.90;;;12.90;;
10174;SDS011;18221;38.704;0.152;2023-06-22T00:25:43;25.87;;;12.60;;
10174;SDS011;18221;38.704;0.152;2023-06-22T00:28:13;20.53;;;12.03;;
10174;SDS011;18221;38.704;0.152;2023-06-22T00:30:41;18.97;;;11.97;;
10174;SDS011;18221;38.704;0.152;2023-06-22T00:33:09;20.03;;;11.57;;
10174;SDS011;18221;38.704;0.152;2023-06-22T00:35:37;16.10;;;10.57;;
10174;SDS011;18221;38.704;0.152;2023-06-22T00:38:06;17.47;;;10.80;;
10174;SDS011;18221;38.704;0.152;2023-06-22T00:40:34;15.10;;;9.43;;
10174;SDS011;18221;38.704;0.152;2023-06-22T00:43:02;15.27;;;9.60;;
10174;SDS011;18221;38.704;0.152;2023-06-22T00:45:33;17.20;;;10.27;;
10174;SDS011;18221;38.704;0.152;2023-06-22T00:48:01;13.83;;;9.33;;
10174;SDS011;18221;38.704;0.152;2023-06-22T00:50:31;14.03;;;9.80;;
10174;SDS011;18221;38.704;0.152;2023-06-22T00:53:01;11.13;;;9.57;;
10174;SDS011;18221;38.704;0.152;2023-06-22T00:55:33;14.73;;;9.97;;
10174;SDS011;18221;38.704;0.152;2023-06-22T00:58:04;15.63;;;10.60;;
10174;SDS011;18221;38.704;0.152;2023-06-22T01:00:37;14.87;;;10.10;;
10174;SDS011;18221;38.704;0.152;2023-06-22T01:03:06;13.40;;;9.27;;
10174;SDS011;18221;38.704;0.152;2023-06-22T01:05:35;15.87;;;10.10;;
10174;SDS011;18221;38.704;0.152;2023-06-22T01:08:06;13.37;;;9.43;;
10174;SDS011;18221;38.704;0.152;2023-06-22T01:10:51;17.20;;;10.47;;
10174;SDS011;18221;38.704;0.152;2023-06-22T01:13:28;14.80;;;10.53;;
10174;SDS011;18221;38.704;0.152;2023-06-22T01:16:07;10.20;;;9.10;;
10174;SDS011;18221;38.704;0.152;2023-06-22T01:18:42;17.07;;;10.27;;
10174;SDS011;18221;38.704;0.152;2023-06-22T01:21:12;15.30;;;10.83;;
10174;SDS011;18221;38.704;0.152;2023-06-22T01:23:51;12.63;;;9.97;;
10174;SDS011;18221;38.704;0.152;2023-06-22T01:26:38;14.43;;;9.70;;
10174;SDS011;18221;38.704;0.152;2023-06-22T01:29:19;11.77;;;9.40;;
10174;SDS011;18221;38.704;0.152;2023-06-22T01:31:51;15.07;;;9.90;;
10174;SDS011;18221;38.704;0.152;2023-06-22T01:34:23;9.50;;;8.60;;
10174;SDS011;18221;38.704;0.152;2023-06-22T01:36:51;12.07;;;8.83;;
10174;SDS011;18221;38.704;0.152;2023-06-22T01:39:21;16.10;;;9.50;;
10174;SDS011;18221;38.704;0.152;2023-06-22T01:41:49;11.90;;;8.80;;
10174;SDS011;18221;38.704;0.152;2023-06-22T01:44:20;12.53;;;8.73;;
10174;SDS011;18221;38.704;0.152;2023-06-22T01:46:49;13.47;;;8.97;;
10174;SDS011;18221;38.704;0.152;2023-06-22T01:49:18;11.53;;;7.87;;
10174;SDS011;18221;38.704;0.152;2023-06-22T01:51:46;11.90;;;8.73;;
10174;SDS011;18221;38.704;0.152;2023-06-22T01:54:14;13.73;;;9.10;;
10174;SDS011;18221;38.704;0.152;2023-06-22T01:56:42;14.47;;;8.57;;
10174;SDS011;18221;38.704;0.152;2023-06-22T01:59:11;11.80;;;8.90;;
10174;SDS011;18221;38.704;0.152;2023-06-22T02:01:49;13.57;;;8.90;;
10174;SDS011;18221;38.704;0.152;2023-06-22T02:04:26;16.70;;;10.43;;
10174;SDS011;18221;38.704;0.152;2023-06-22T02:07:00;14.97;;;10.23;;
10174;SDS011;18221;38.704;0.152;2023-06-22T02:09:32;23.40;;;12.80;;
10174;SDS011;18221;38.704;0.152;2023-06-22T02:12:05;17.63;;;11.43;;
10174;SDS011;18221;38.704;0.152;2023-06-22T02:14:38;15.00;;;11.90;;
10174;SDS011;18221;38.704;0.152;2023-06-22T02:17:09;21.87;;;12.73;;
10174;SDS011;18221;38.704;0.152;2023-06-22T02:19:38;17.43;;;12.43;;
10174;SDS011;18221;38.704;0.152;2023-06-22T02:22:08;16.47;;;12.67;;
10174;SDS011;18221;38.704;0.152;2023-06-22T02:24:37;17.67;;;12.07;;
10174;SDS011;18221;38.704;0.152;2023-06-22T02:27:06;18.33;;;12.97;;
10174;SDS011;18221;38.704;0.152;2023-06-22T02:29:34;16.20;;;12.97;;
10174;SDS011;18221;38.704;0.152;2023-06-22T02:32:02;17.27;;;12.47;;
10174;SDS011;18221;38.704;0.152;2023-06-22T02:34:32;16.03;;;11.90;;
10174;SDS011;18221;38.704;0.152;2023-06-22T02:37:02;23.50;;;12.87;;
10174;SDS011;18221;38.704;0.152;2023-06-22T02:39:30;20.00;;;13.20;;
10174;SDS011;18221;38.704;0.152;2023-06-22T02:41:58;18.30;;;13.20;;
10174;SDS011;18221;38.704;0.152;2023-06-22T02:44:27;20.13;;;12.23;;
10174;SDS011;18221;38.704;0.152;2023-06-22T02:46:55;16.70;;;12.13;;
10174;SDS011;18221;38.704;0.152;2023-06-22T02:49:23;18.20;;;12.67;;
10174;SDS011;18221;38.704;0.152;2023-06-22T02:51:53;18.40;;;13.63;;
10174;SDS011;18221;38.704;0.152;2023-06-22T02:54:21;18.30;;;12.10;;
10174;SDS011;18221;38.704;0.152;2023-06-22T02:56:49;15.97;;;12.07;;
10174;SDS011;18221;38.704;0.152;2023-06-22T02:59:17;17.83;;;11.80;;
10174;SDS011;18221;38.704;0.152;2023-06-22T03:01:48;17.07;;;11.17;;
10174;SDS011;18221;38.704;0.152;2023-06-22T03:04:16;12.67;;;11.37;;
10174;SDS011;18221;38.704;0.152;2023-06-22T03:06:45;15.37;;;11.23;;
10174;SDS011;18221;38.704;0.152;2023-06-22T03:09:17;16.17;;;9.73;;
10174;SDS011;18221;38.704;0.152;2023-06-22T03:11:46;14.03;;;10.07;;
10174;SDS011;18221;38.704;0.152;2023-06-22T03:14:14;13.50;;;9.40;;
10174;SDS011;18221;38.704;0.152;2023-06-22T03:16:42;13.33;;;8.10;;
10174;SDS011;18221;38.704;0.152;2023-06-22T03:19:10;15.93;;;8.97;;
10174;SDS011;18221;38.704;0.152;2023-06-22T03:21:39;12.60;;;9.17;;
10174;SDS011;18221;38.704;0.152;2023-06-22T03:24:07;16.80;;;8.57;;
10174;SDS011;18221;38.704;0.152;2023-06-22T03:26:36;11.03;;;8.10;;
10174;SDS011;18221;38.704;0.152;2023-06-22T03:29:04;9.80;;;8.80;;
10174;SDS011;18221;38.704;0.152;2023-06-22T03:31:32;15.13;;;8.70;;
10174;SDS011;18221;38.704;0.152;2023-06-22T03:34:00;14.03;;;8.50;;
10174;SDS011;18221;38.704;0.152;2023-06-22T03:36:28;10.87;;;8.70;;
10174;SDS011;18221;38.704;0.152;2023-06-22T03:38:56;11.73;;;9.33;;
10174;SDS011;18221;38.704;0.152;2023-06-22T03:41:24;13.67;;;9.40;;
10174;SDS011;18221;38.704;0.152;2023-06-22T03:43:54;13.60;;;9.20;;
10174;SDS011;18221;38.704;0.152;2023-06-22T03:46:21;11.57;;;9.60;;
10174;SDS011;18221;38.704;0.152;2023-06-22T03:48:49;13.40;;;9.90;;
10174;SDS011;18221;38.704;0.152;2023-06-22T03:51:18;14.47;;;10.13;;
10174;SDS011;18221;38.704;0.152;2023-06-22T03:53:45;16.40;;;11.03;;
10174;SDS011;18221;38.704;0.152;2023-06-22T03:56:14;14.33;;;10.33;;
10174;SDS011;18221;38.704;0.152;2023-06-22T03:58:45;13.17;;;9.47;;
10174;SDS011;18221;38.704;0.152;2023-06-22T04:01:15;11.87;;;10.00;;
10174;SDS011;18221;38.704;0.152;2023-06-22T04:03:43;12.03;;;9.93;;
10174;SDS011;18221;38.704;0.152;2023-06-22T04:06:13;15.67;;;10.23;;
10174;SDS011;18221;38.704;0.152;2023-06-22T04:08:41;13.23;;;9.97;;
10174;SDS011;18221;38.704;0.152;2023-06-22T04:11:09;13.50;;;9.87;;
10174;SDS011;18221;38.704;0.152;2023-06-22T04:13:37;15.70;;;10.37;;
10174;SDS011;18221;38.704;0.152;2023-06-22T04:16:05;12.23;;;9.70;;
10174;SDS011;18221;38.704;0.152;2023-06-22T04:18:34;13.83;;;9.77;;
10174;SDS011;18221;38.704;0.152;2023-06-22T04:21:02;10.93;;;9.43;;
10174;SDS011;18221;38.704;0.152;2023-06-22T04:23:31;12.00;;;9.73;;
10174;SDS011;18221;38.704;0.152;2023-06-22T04:25:59;12.67;;;9.27;;
10174;SDS011;18221;38.704;0.152;2023-06-22T04:28:27;12.60;;;9.20;;
10174;SDS011;18221;38.704;0.152;2023-06-22T04:31:00;13.50;;;9.33;;
10174;SDS011;18221;38.704;0.152;2023-06-22T04:33:28;12.30;;;8.80;;
10174;SDS011;18221;38.704;0.152;2023-06-22T04:35:58;12.63;;;9.10;;
10174;SDS011;18221;38.704;0.152;2023-06-22T04:38:27;16.60;;;10.23;;
10174;SDS011;18221;38.704;0.152;2023-06-22T04:40:58;13.47;;;10.13;;
10174;SDS011;18221;38.704;0.152;2023-06-22T04:43:27;17.53;;;10.17;;
10174;SDS011;18221;38.704;0.152;2023-06-22T04:45:56;17.23;;;10.13;;
10174;SDS011;18221;38.704;0.152;2023-06-22T04:48:28;15.60;;;10.23;;
10174;SDS011;18221;38.704;0.152;2023-06-22T04:51:00;13.27;;;10.17;;
10174;SDS011;18221;38.704;0.152;2023-06-22T04:53:29;14.83;;;10.67;;
10174;SDS011;18221;38.704;0.152;2023-06-22T04:55:58;15.70;;;10.37;;
10174;SDS011;18221;38.704;0.152;2023-06-22T04:58:26;13.73;;;9.80;;
10174;SDS011;18221;38.704;0.152;2023-06-22T05:00:57;14.63;;;10.17;;
10174;SDS011;18221;38.704;0.152;2023-06-22T05:03:25;15.33;;;10.57;;
10174;SDS011;18221;38.704;0.152;2023-06-22T05:05:53;14.30;;;9.77;;
10174;SDS011;18221;38.704;0.152;2023-06-22T05:08:23;14.27;;;9.93;;
10174;SDS011;18221;38.704;0.152;2023-06-22T05:10:53;15.50;;;10.27;;
10174;SDS011;18221;38.704;0.152;2023-06-22T05:13:21;14.37;;;10.10;;
10174;SDS011;18221;38.704;0.152;2023-06-22T05:15:51;12.97;;;9.67;;
10174;SDS011;18221;38.704;0.152;2023-06-22T05:18:27;14.97;;;9.83;;
10174;SDS011;18221;38.704;0.152;2023-06-22T05:20:55;16.87;;;10.47;;
10174;SDS011;18221;38.704;0.152;2023-06-22T05:23:26;16.00;;;10.20;;
10174;SDS011;18221;38.704;0.152;2023-06-22T05:25:55;14.47;;;9.90;;
10174;SDS011;18221;38.704;0.152;2023-06-22T05:28:23;12.20;;;10.17;;
10174;SDS011;18221;38.704;0.152;2023-06-22T05:30:51;16.97;;;9.90;;
10174;SDS011;18221;38.704;0.152;2023-06-22T05:33:20;10.50;;;8.97;;
10174;SDS011;18221;38.704;0.152;2023-06-22T05:35:47;11.73;;;9.27;;
10174;SDS011;18221;38.704;0.152;2023-06-22T05:38:16;11.40;;;9.40;;
10174;SDS011;18221;38.704;0.152;2023-06-22T05:40:45;17.30;;;10.20;;
10174;SDS011;18221;38.704;0.152;2023-06-22T05:43:13;13.43;;;9.80;;
10174;SDS011;18221;38.704;0.152;2023-06-22T05:45:41;12.77;;;9.57;;
10174;SDS011;18221;38.704;0.152;2023-06-22T05:48:09;13.23;;;9.27;;
10174;SDS011;18221;38.704;0.152;2023-06-22T05:50:37;14.07;;;9.37;;
10174;SDS011;18221;38.704;0.152;2023-06-22T05:53:05;10.83;;;9.23;;
10174;SDS011;18221;38.704;0.152;2023-06-22T05:55:33;14.20;;;8.90;;
10174;SDS011;18221;38.704;0.152;2023-06-22T05:58:03;10.77;;;9.23;;
10174;SDS011;18221;38.704;0.152;2023-06-22T06:00:31;11.90;;;10.13;;
10174;SDS011;18221;38.704;0.152;2023-06-22T06:02:59;14.10;;;10.60;;
10174;SDS011;18221;38.704;0.152;2023-06-22T06:05:28;11.67;;;9.50;;
10174;SDS011;18221;38.704;0.152;2023-06-22T06:07:56;12.80;;;9.10;;
10174;SDS011;18221;38.704;0.152;2023-06-22T06:10:25;9.97;;;6.80;;
10174;SDS011;18221;38.704;0.152;2023-06-22T06:12:52;11.10;;;6.80;;
10174;SDS011;18221;38.704;0.152;2023-06-22T06:15:22;7.80;;;5.77;;
10174;SDS011;18221;38.704;0.152;2023-06-22T06:17:50;6.80;;;4.83;;
10174;SDS011;18221;38.704;0.152;2023-06-22T06:20:20;7.20;;;5.37;;
10174;SDS011;18221;38.704;0.152;2023-06-22T06:22:51;6.63;;;5.20;;
10174;SDS011;18221;38.704;0.152;2023-06-22T06:25:19;8.00;;;5.43;;
10174;SDS011;18221;38.704;0.152;2023-06-22T06:27:47;5.87;;;4.50;;
10174;SDS011;18221;38.704;0.152;2023-06-22T06:30:17;5.30;;;4.43;;
10174;SDS011;18221;38.704;0.152;2023-06-22T06:32:50;4.40;;;3.70;;
10174;SDS011;18221;38.704;0.152;2023-06-22T06:35:19;5.97;;;3.90;;
10174;SDS011;18221;38.704;0.152;2023-06-22T06:37:48;4.73;;;3.70;;
10174;SDS011;18221;38.704;0.152;2023-06-22T06:40:17;3.60;;;3.30;;
10174;SDS011;18221;38.704;0.152;2023-06-22T06:42:46;4.60;;;3.77;;
10174;SDS011;18221;38.704;0.152;2023-06-22T06:45:16;5.07;;;3.37;;
10174;SDS011;18221;38.704;0.152;2023-06-22T06:47:45;4.30;;;3.07;;
10174;SDS011;18221;38.704;0.152;2023-06-22T06:50:15;5.67;;;2.80;;
10174;SDS011;18221;38.704;0.152;2023-06-22T06:52:44;3.77;;;3.13;;
10174;SDS011;18221;38.704;0.152;2023-06-22T06:55:12;3.50;;;3.20;;
10174;SDS011;18221;38.704;0.152;2023-06-22T06:57:40;4.33;;;3.10;;
10174;SDS011;18221;38.704;0.152;2023-06-22T07:00:10;8.60;;;3.70;;
10174;SDS011;18221;38.704;0.152;2023-06-22T07:02:40;6.83;;;3.30;;
10174;SDS011;18221;38.704;0.152;2023-06-22T07:05:10;4.10;;;3.00;;
10174;SDS011;18221;38.704;0.152;2023-06-22T07:07:40;4.90;;;3.13;;
10174;SDS011;18221;38.704;0.152;2023-06-22T07:10:09;6.47;;;3.23;;
10174;SDS011;18221;38.704;0.152;2023-06-22T07:12:38;10.47;;;3.80;;
10174;SDS011;18221;38.704;0.152;2023-06-22T07:15:08;12.23;;;3.70;;
10174;SDS011;18221;38.704;0.152;2023-06-22T07:17:38;3.60;;;2.90;;
10174;SDS011;18221;38.704;0.152;2023-06-22T07:20:06;6.47;;;3.03;;
10174;SDS011;18221;38.704;0.152;2023-06-22T07:22:37;6.87;;;3.60;;
10174;SDS011;18221;38.704;0.152;2023-06-22T07:25:07;4.90;;;3.00;;
10174;SDS011;18221;38.704;0.152;2023-06-22T07:27:39;5.23;;;2.90;;
10174;SDS011;18221;38.704;0.152;2023-06-22T07:30:12;4.53;;;2.80;;
10174;SDS011;18221;38.704;0.152;2023-06-22T07:32:41;4.30;;;3.23;;
10174;SDS011;18221;38.704;0.152;2023-06-22T07:35:09;4.23;;;3.27;;
10174;SDS011;18221;38.704;0.152;2023-06-22T07:37:37;6.50;;;3.70;;
10174;SDS011;18221;38.704;0.152;2023-06-22T07:40:05;5.43;;;3.60;;
10174;SDS011;18221;38.704;0.152;2023-06-22T07:42:36;5.10;;;3.30;;
10174;SDS011;18221;38.704;0.152;2023-06-22T07:45:05;5.68;;;3.40;;
10174;SDS011;18221;38.704;0.152;2023-06-22T07:47:34;6.65;;;3.20;;
10174;SDS011;18221;38.704;0.152;2023-06-22T07:50:02;4.65;;;3.40;;
10174;SDS011;18221;38.704;0.152;2023-06-22T07:52:32;3.67;;;2.97;;
10174;SDS011;18221;38.704;0.152;2023-06-22T07:55:00;4.30;;;3.55;;
10174;SDS011;18221;38.704;0.152;2023-06-22T07:57:30;4.85;;;3.05;;
10174;SDS011;18221;38.704;0.152;2023-06-22T08:00:02;6.30;;;3.58;;
10174;SDS011;18221;38.704;0.152;2023-06-22T08:02:39;5.40;;;3.55;;
10174;SDS011;18221;38.704;0.152;2023-06-22T08:05:09;4.03;;;3.15;;
10174;SDS011;18221;38.704;0.152;2023-06-22T08:07:38;3.25;;;2.95;;
10174;SDS011;18221;38.704;0.152;2023-06-22T08:10:08;4.35;;;2.85;;
10174;SDS011;18221;38.704;0.152;2023-06-22T08:12:39;5.13;;;3.53;;
10174;SDS011;18221;38.704;0.152;2023-06-22T08:15:08;3.47;;;3.17;;
10174;SDS011;18221;38.704;0.152;2023-06-22T08:17:36;5.20;;;2.97;;
10174;SDS011;18221;38.704;0.152;2023-06-22T08:20:05;5.90;;;3.38;;
10174;SDS011;18221;38.704;0.152;2023-06-22T08:22:37;4.10;;;3.00;;
10174;SDS011;18221;38.704;0.152;2023-06-22T08:25:05;4.20;;;2.70;;
10174;SDS011;18221;38.704;0.152;2023-06-22T08:27:34;3.65;;;2.95;;
10174;SDS011;18221;38.704;0.152;2023-06-22T08:30:05;3.15;;;2.60;;
10174;SDS011;18221;38.704;0.152;2023-06-22T08:32:36;4.93;;;2.55;;
10174;SDS011;18221;38.704;0.152;2023-06-22T08:35:04;4.15;;;2.70;;
10174;SDS011;18221;38.704;0.152;2023-06-22T08:37:33;3.63;;;2.92;;
10174;SDS011;18221;38.704;0.152;2023-06-22T08:40:02;3.72;;;2.88;;
10174;SDS011;18221;38.704;0.152;2023-06-22T08:42:34;4.45;;;2.53;;
10174;SDS011;18221;38.704;0.152;2023-06-22T08:45:05;3.30;;;2.78;;
10174;SDS011;18221;38.704;0.152;2023-06-22T08:47:34;3.55;;;3.00;;
10174;SDS011;18221;38.704;0.152;2023-06-22T08:50:04;3.10;;;2.80;;
10174;SDS011;18221;38.704;0.152;2023-06-22T08:52:34;3.45;;;2.90;;
10174;SDS011;18221;38.704;0.152;2023-06-22T08:55:06;4.53;;;2.78;;
10174;SDS011;18221;38.704;0.152;2023-06-22T08:57:36;3.85;;;3.20;;
10174;SDS011;18221;38.704;0.152;2023-06-22T09:00:07;7.70;;;4.40;;
10174;SDS011;18221;38.704;0.152;2023-06-22T09:02:43;6.78;;;4.50;;
10174;SDS011;18221;38.704;0.152;2023-06-22T09:05:12;6.70;;;4.10;;
10174;SDS011;18221;38.704;0.152;2023-06-22T09:07:41;8.88;;;4.45;;
10174;SDS011;18221;38.704;0.152;2023-06-22T09:10:10;9.25;;;4.70;;
10174;SDS011;18221;38.704;0.152;2023-06-22T09:12:38;7.03;;;4.50;;
10174;SDS011;18221;38.704;0.152;2023-06-22T09:15:09;6.50;;;4.30;;
10174;SDS011;18221;38.704;0.152;2023-06-22T09:17:37;6.25;;;4.43;;
10174;SDS011;18221;38.704;0.152;2023-06-22T09:20:13;6.10;;;4.10;;
10174;SDS011;18221;38.704;0.152;2023-06-22T09:22:41;5.82;;;3.97;;
10174;SDS011;18221;38.704;0.152;2023-06-22T09:25:09;8.00;;;4.57;;
10174;SDS011;18221;38.704;0.152;2023-06-22T09:27:37;6.65;;;4.40;;
10174;SDS011;18221;38.704;0.152;2023-06-22T09:30:06;7.97;;;4.45;;
10174;SDS011;18221;38.704;0.152;2023-06-22T09:32:36;8.80;;;4.80;;
10174;SDS011;18221;38.704;0.152;2023-06-22T09:35:05;6.30;;;4.45;;
10174;SDS011;18221;38.704;0.152;2023-06-22T09:37:34;6.32;;;4.25;;
10174;SDS011;18221;38.704;0.152;2023-06-22T09:40:03;6.78;;;4.78;;
10174;SDS011;18221;38.704;0.152;2023-06-22T09:42:35;5.88;;;4.82;;
10174;SDS011;18221;38.704;0.152;2023-06-22T09:45:04;9.20;;;4.78;;
10174;SDS011;18221;38.704;0.152;2023-06-22T09:47:34;6.13;;;4.45;;
10174;SDS011;18221;38.704;0.152;2023-06-22T09:50:03;6.60;;;5.05;;
10174;SDS011;18221;38.704;0.152;2023-06-22T09:52:32;6.70;;;4.93;;
10174;SDS011;18221;38.704;0.152;2023-06-22T09:55:00;5.85;;;4.10;;
10174;SDS011;18221;38.704;0.152;2023-06-22T09:57:29;7.53;;;4.38;;
10174;SDS011;18221;38.704;0.152;2023-06-22T09:59:57;5.65;;;4.20;;
10174;SDS011;18221;38.704;0.152;2023-06-22T10:02:25;6.55;;;4.22;;
10174;SDS011;18221;38.704;0.152;2023-06-22T10:04:54;8.02;;;4.57;;
10174;SDS011;18221;38.704;0.152;2023-06-22T10:07:22;6.57;;;4.40;;
10174;SDS011;18221;38.704;0.152;2023-06-22T10:09:51;4.88;;;4.03;;
10174;SDS011;18221;38.704;0.152;2023-06-22T10:12:18;7.00;;;3.88;;
10174;SDS011;18221;38.704;0.152;2023-06-22T10:14:46;7.35;;;4.20;;
10174;SDS011;18221;38.704;0.152;2023-06-22T10:17:14;9.02;;;4.13;;
10174;SDS011;18221;38.704;0.152;2023-06-22T10:19:42;5.60;;;3.70;;
10174;SDS011;18221;38.704;0.152;2023-06-22T10:22:12;5.03;;;3.50;;
10174;SDS011;18221;38.704;0.152;2023-06-22T10:24:40;4.57;;;3.42;;
10174;SDS011;18221;38.704;0.152;2023-06-22T10:27:09;5.57;;;3.17;;
10174;SDS011;18221;38.704;0.152;2023-06-22T10:29:37;3.85;;;3.38;;
10174;SDS011;18221;38.704;0.152;2023-06-22T10:32:06;6.72;;;3.60;;
10174;SDS011;18221;38.704;0.152;2023-06-22T10:34:35;4.85;;;3.30;;
10174;SDS011;18221;38.704;0.152;2023-06-22T10:37:03;4.15;;;3.45;;
10174;SDS011;18221;38.704;0.152;2023-06-22T10:39:33;5.05;;;3.10;;
10174;SDS011;18221;38.704;0.152;2023-06-22T10:42:01;4.75;;;3.35;;
10174;SDS011;18221;38.704;0.152;2023-06-22T10:44:30;4.82;;;3.30;;
10174;SDS011;18221;38.704;0.152;2023-06-22T10:46:58;6.97;;;3.80;;
10174;SDS011;18221;38.704;0.152;2023-06-22T10:49:26;4.72;;;3.30;;
10174;SDS011;18221;38.704;0.152;2023-06-22T10:51:53;4.35;;;3.20;;
10174;SDS011;18221;38.704;0.152;2023-06-22T10:54:22;4.68;;;3.53;;
10174;SDS011;18221;38.704;0.152;2023-06-22T10:56:51;4.15;;;3.35;;
10174;SDS011;18221;38.704;0.152;2023-06-22T10:59:19;5.30;;;3.58;;
10174;SDS011;18221;38.704;0.152;2023-06-22T11:01:49;5.38;;;3.63;;
10174;SDS011;18221;38.704;0.152;2023-06-22T11:04:17;5.38;;;3.20;;
10174;SDS011;18221;38.704;0.152;2023-06-22T11:06:45;4.10;;;3.50;;
10174;SDS011;18221;38.704;0.152;2023-06-22T11:09:14;4.88;;;3.50;;
10174;SDS011;18221;38.704;0.152;2023-06-22T11:11:45;4.30;;;3.13;;
10174;SDS011;18221;38.704;0.152;2023-06-22T11:14:15;4.35;;;3.17;;
10174;SDS011;18221;38.704;0.152;2023-06-22T11:16:43;4.43;;;3.65;;
10174;SDS011;18221;38.704;0.152;2023-06-22T11:19:11;4.88;;;3.28;;
10174;SDS011;18221;38.704;0.152;2023-06-22T11:21:39;4.22;;;3.25;;
10174;SDS011;18221;38.704;0.152;2023-06-22T11:24:07;5.50;;;2.95;;
10174;SDS011;18221;38.704;0.152;2023-06-22T11:26:36;4.30;;;3.35;;
10174;SDS011;18221;38.704;0.152;2023-06-22T11:29:04;6.50;;;3.35;;
10174;SDS011;18221;38.704;0.152;2023-06-22T11:31:35;5.05;;;2.80;;
10174;SDS011;18221;38.704;0.152;2023-06-22T11:34:03;6.38;;;3.28;;
10174;SDS011;18221;38.704;0.152;2023-06-22T11:36:31;7.05;;;3.13;;
10174;SDS011;18221;38.704;0.152;2023-06-22T11:39:00;4.53;;;3.30;;
10174;SDS011;18221;38.704;0.152;2023-06-22T11:41:28;4.28;;;2.95;;
10174;SDS011;18221;38.704;0.152;2023-06-22T11:43:56;3.80;;;3.17;;
10174;SDS011;18221;38.704;0.152;2023-06-22T11:46:24;4.15;;;3.10;;
10174;SDS011;18221;38.704;0.152;2023-06-22T11:48:55;4.90;;;2.80;;
10174;SDS011;18221;38.704;0.152;2023-06-22T11:51:23;6.20;;;3.10;;
10174;SDS011;18221;38.704;0.152;2023-06-22T11:53:51;5.97;;;2.92;;
10174;SDS011;18221;38.704;0.152;2023-06-22T11:56:20;4.30;;;2.95;;
10174;SDS011;18221;38.704;0.152;2023-06-22T11:58:48;3.83;;;2.92;;
10174;SDS011;18221;38.704;0.152;2023-06-22T12:01:16;4.60;;;3.17;;
10174;SDS011;18221;38.704;0.152;2023-06-22T12:03:44;4.65;;;3.30;;
10174;SDS011;18221;38.704;0.152;2023-06-22T12:06:15;4.57;;;3.38;;
10174;SDS011;18221;38.704;0.152;2023-06-22T12:08:43;5.72;;;3.38;;
10174;SDS011;18221;38.704;0.152;2023-06-22T12:11:10;4.50;;;3.42;;
10174;SDS011;18221;38.704;0.152;2023-06-22T12:13:38;3.35;;;3.03;;
10174;SDS011;18221;38.704;0.152;2023-06-22T12:16:06;5.95;;;2.95;;
10174;SDS011;18221;38.704;0.152;2023-06-22T12:18:34;3.92;;;3.08;;
10174;SDS011;18221;38.704;0.152;2023-06-22T12:21:05;3.65;;;3.00;;
10174;SDS011;18221;38.704;0.152;2023-06-22T12:23:34;3.47;;;3.08;;
10174;SDS011;18221;38.704;0.152;2023-06-22T12:26:02;3.22;;;2.92;;
10174;SDS011;18221;38.704;0.152;2023-06-22T12:28:30;3.45;;;2.88;;
10174;SDS011;18221;38.704;0.152;2023-06-22T12:30:58;3.75;;;3.13;;
10174;SDS011;18221;38.704;0.152;2023-06-22T12:33:26;5.25;;;3.20;;
10174;SDS011;18221;38.704;0.152;2023-06-22T12:35:55;4.10;;;3.13;;
10174;SDS011;18221;38.704;0.152;2023-06-22T12:38:23;3.85;;;3.17;;
10174;SDS011;18221;38.704;0.152;2023-06-22T12:40:52;4.15;;;2.67;;
10174;SDS011;18221;38.704;0.152;2023-06-22T12:43:20;4.20;;;2.90;;
10174;SDS011;18221;38.704;0.152;2023-06-22T12:45:48;5.43;;;2.75;;
10174;SDS011;18221;38.704;0.152;2023-06-22T12:48:16;4.15;;;2.70;;
10174;SDS011;18221;38.704;0.152;2023-06-22T12:50:45;4.10;;;2.97;;
10174;SDS011;18221;38.704;0.152;2023-06-22T12:53:13;4.03;;;2.60;;
10174;SDS011;18221;38.704;0.152;2023-06-22T12:55:41;5.88;;;3.13;;
10174;SDS011;18221;38.704;0.152;2023-06-22T12:58:10;4.15;;;2.88;;
10174;SDS011;18221;38.704;0.152;2023-06-22T13:00:38;3.50;;;2.55;;
10174;SDS011;18221;38.704;0.152;2023-06-22T13:03:06;4.82;;;3.05;;
10174;SDS011;18221;38.704;0.152;2023-06-22T13:05:34;5.43;;;2.88;;
10174;SDS011;18221;38.704;0.152;2023-06-22T13:08:02;6.60;;;2.90;;
10174;SDS011;18221;38.704;0.152;2023-06-22T13:10:30;2.88;;;2.42;;
10174;SDS011;18221;38.704;0.152;2023-06-22T13:12:58;3.80;;;2.63;;
10174;SDS011;18221;38.704;0.152;2023-06-22T13:15:28;4.32;;;2.53;;
10174;SDS011;18221;38.704;0.152;2023-06-22T13:17:56;3.60;;;2.90;;
10174;SDS011;18221;38.704;0.152;2023-06-22T13:20:24;3.13;;;2.75;;
10174;SDS011;18221;38.704;0.152;2023-06-22T13:22:53;3.72;;;2.50;;
10174;SDS011;18221;38.704;0.152;2023-06-22T13:25:22;4.20;;;3.05;;
10174;SDS011;18221;38.704;0.152;2023-06-22T13:27:51;3.25;;;2.67;;
10174;SDS011;18221;38.704;0.152;2023-06-22T13:30:19;4.10;;;2.70;;
10174;SDS011;18221;38.704;0.152;2023-06-22T13:32:50;4.97;;;2.90;;
10174;SDS011;18221;38.704;0.152;2023-06-22T13:35:18;3.10;;;2.75;;
10174;SDS011;18221;38.704;0.152;2023-06-22T13:37:46;3.53;;;2.38;;
10174;SDS011;18221;38.704;0.152;2023-06-22T13:40:14;5.80;;;2.80;;
10174;SDS011;18221;38.704;0.152;2023-06-22T13:42:42;3.47;;;2.80;;
10174;SDS011;18221;38.704;0.152;2023-06-22T13:45:10;4.55;;;2.83;;
10174;SDS011;18221;38.704;0.152;2023-06-22T13:47:42;5.28;;;2.70;;
10174;SDS011;18221;38.704;0.152;2023-06-22T13:50:14;4.85;;;2.72;;
10174;SDS011;18221;38.704;0.152;2023-06-22T13:52:45;4.43;;;2.63;;
10174;SDS011;18221;38.704;0.152;2023-06-22T13:55:13;4.78;;;2.63;;
10174;SDS011;18221;38.704;0.152;2023-06-22T13:57:42;3.00;;;2.70;;
10174;SDS011;18221;38.704;0.152;2023-06-22T14:00:11;3.03;;;2.72;;
10174;SDS011;18221;38.704;0.152;2023-06-22T14:02:40;3.75;;;2.42;;
10174;SDS011;18221;38.704;0.152;2023-06-22T14:05:08;3.22;;;2.70;;
10174;SDS011;18221;38.704;0.152;2023-06-22T14:07:37;2.63;;;2.42;;
10174;SDS011;18221;38.704;0.152;2023-06-22T14:10:05;3.40;;;2.50;;
10174;SDS011;18221;38.704;0.152;2023-06-22T14:12:34;2.60;;;2.40;;
10174;SDS011;18221;38.704;0.152;2023-06-22T14:15:02;2.78;;;2.58;;
10174;SDS011;18221;38.704;0.152;2023-06-22T14:17:31;3.30;;;2.40;;
10174;SDS011;18221;38.704;0.152;2023-06-22T14:19:59;4.03;;;2.65;;
10174;SDS011;18221;38.704;0.152;2023-06-22T14:22:31;2.63;;;2.20;;
10174;SDS011;18221;38.704;0.152;2023-06-22T14:25:04;2.70;;;2.50;;
10174;SDS011;18221;38.704;0.152;2023-06-22T14:27:33;2.83;;;2.50;;
10174;SDS011;18221;38.704;0.152;2023-06-22T14:30:01;2.30;;;2.10;;
10174;SDS011;18221;38.704;0.152;2023-06-22T14:32:29;4.22;;;2.97;;
10174;SDS011;18221;38.704;0.152;2023-06-22T14:34:57;3.75;;;2.78;;
10174;SDS011;18221;38.704;0.152;2023-06-22T14:37:25;3.92;;;2.50;;
10174;SDS011;18221;38.704;0.152;2023-06-22T14:39:53;3.30;;;2.65;;
10174;SDS011;18221;38.704;0.152;2023-06-22T14:42:22;3.13;;;2.50;;
10174;SDS011;18221;38.704;0.152;2023-06-22T14:44:52;3.78;;;2.70;;
10174;SDS011;18221;38.704;0.152;2023-06-22T14:47:19;2.85;;;2.47;;
10174;SDS011;18221;38.704;0.152;2023-06-22T14:49:47;6.22;;;2.80;;